createdAt,value
2018-05-04T00:02:00.372Z,99.90
2018-05-04T00:04:27.812Z,99.90
2018-05-04T00:06:55.292Z,99.90
2018-05-04T00:09:22.680Z,99.90
2018-05-04T00:11:50.108Z,99.90
2018-05-04T00:14:18.313Z,99.90
2018-05-04T00:16:45.745Z,99.90
2018-05-04T00:19:13.968Z,99.90
2018-05-04T00:21:41.396Z,99.90
2018-05-04T00:24:08.836Z,99.90
2018-05-04T00:26:36.268Z,99.90
2018-05-04T00:29:03.708Z,99.90
2018-05-04T00:31:31.136Z,99.90
2018-05-04T00:33:58.568Z,99.90
2018-05-04T00:36:26.009Z,99.90
2018-05-04T00:38:54.211Z,99.90
2018-05-04T00:41:21.644Z,99.90
2018-05-04T00:43:49.072Z,99.90
2018-05-04T00:46:16.530Z,99.90
2018-05-04T00:48:43.957Z,99.90
2018-05-04T00:51:11.392Z,99.90
2018-05-04T00:53:50.885Z,99.90
2018-05-04T00:56:18.320Z,99.90
2018-05-04T00:58:45.748Z,99.90
2018-05-04T01:01:13.203Z,99.90
2018-05-04T01:03:40.637Z,99.90
2018-05-04T01:06:08.080Z,99.90
2018-05-04T01:08:36.277Z,99.90
2018-05-04T01:11:03.720Z,99.90
2018-05-04T01:13:31.160Z,99.90
2018-05-04T01:15:59.370Z,99.90
2018-05-04T01:18:26.809Z,99.90
2018-05-04T01:20:54.253Z,99.90
2018-05-04T01:23:22.448Z,99.90
2018-05-04T01:25:49.900Z,99.90
2018-05-04T01:28:17.324Z,99.90
2018-05-04T01:30:45.537Z,99.90
2018-05-04T01:33:12.980Z,99.90
2018-05-04T01:35:40.430Z,99.90
2018-05-04T01:38:08.657Z,99.90
2018-05-04T01:40:36.093Z,99.90
2018-05-04T01:43:03.527Z,99.90
2018-05-04T01:45:30.964Z,99.90
2018-05-04T01:47:59.176Z,99.90
2018-05-04T01:50:26.623Z,99.90
2018-05-04T01:52:54.064Z,99.90
2018-05-04T01:55:21.500Z,99.90
2018-05-04T01:57:49.715Z,99.90
2018-05-04T02:00:17.152Z,99.90
2018-05-04T02:02:44.597Z,99.90
2018-05-04T02:05:12.805Z,99.90
2018-05-04T02:07:40.263Z,99.90
2018-05-04T02:10:07.677Z,99.90
2018-05-04T02:12:35.897Z,99.90
2018-05-04T02:15:03.337Z,99.90
2018-05-04T02:17:30.781Z,99.90
2018-05-04T02:19:58.222Z,99.90
2018-05-04T02:22:26.452Z,99.90
2018-05-04T02:24:53.891Z,99.90
2018-05-04T02:27:21.329Z,99.90
2018-05-04T02:29:48.764Z,99.90
2018-05-04T02:32:16.972Z,99.90
2018-05-04T02:34:44.413Z,99.90
2018-05-04T02:37:11.856Z,99.90
2018-05-04T02:39:40.059Z,99.90
2018-05-04T02:42:08.824Z,99.90
2018-05-04T02:44:36.268Z,99.90
2018-05-04T02:47:04.482Z,99.90
2018-05-04T02:49:31.912Z,99.90
2018-05-04T02:51:59.360Z,99.90
2018-05-04T02:54:27.563Z,99.90
2018-05-04T02:56:55.002Z,99.90
2018-05-04T02:59:22.447Z,99.90
2018-05-04T03:01:50.654Z,99.90
2018-05-04T03:04:18.097Z,99.90
2018-05-04T03:06:45.542Z,99.90
2018-05-04T03:09:13.736Z,99.90
2018-05-04T03:11:41.185Z,99.90
2018-05-04T03:14:08.623Z,99.90
2018-05-04T03:16:36.064Z,99.90
2018-05-04T03:19:04.380Z,99.90
2018-05-04T03:21:31.803Z,99.90
2018-05-04T03:24:00.009Z,99.90
2018-05-04T03:26:27.449Z,99.90
2018-05-04T03:28:54.888Z,99.90
2018-05-04T03:31:23.101Z,99.90
2018-05-04T03:33:50.545Z,99.90
2018-05-04T03:36:17.984Z,99.90
2018-05-04T03:38:45.437Z,99.90
2018-05-04T03:41:13.640Z,99.90
2018-05-04T03:43:41.090Z,99.90
2018-05-04T03:46:08.520Z,99.90
2018-05-04T03:48:36.728Z,99.90
2018-05-04T03:51:04.168Z,99.90
2018-05-04T03:53:31.616Z,99.90
2018-05-04T03:55:59.056Z,99.90
2018-05-04T03:58:39.001Z,99.90
2018-05-04T04:01:18.956Z,99.90
2018-05-04T04:03:59.109Z,99.90
2018-05-04T04:06:27.314Z,99.90
2018-05-04T04:08:54.764Z,99.90
2018-05-04T04:11:22.205Z,99.90
2018-05-04T04:13:50.416Z,99.90
2018-05-04T04:16:17.852Z,99.90
2018-05-04T04:18:45.293Z,99.90
2018-05-04T04:21:12.732Z,99.90
2018-05-04T04:23:40.940Z,99.90
2018-05-04T04:26:08.392Z,99.90
2018-05-04T04:28:35.836Z,99.90
2018-05-04T04:31:03.286Z,99.90
2018-05-04T04:33:31.475Z,99.90
2018-05-04T04:35:59.041Z,99.90
2018-05-04T04:38:27.763Z,99.90
2018-05-04T04:40:55.204Z,99.90
2018-05-04T04:43:22.650Z,99.90
2018-05-04T04:45:50.091Z,99.90
2018-05-04T04:48:17.532Z,99.90
2018-05-04T04:50:45.744Z,99.90
2018-05-04T04:53:13.180Z,99.90
2018-05-04T04:55:40.625Z,99.90
2018-05-04T04:58:08.057Z,99.90
2018-05-04T05:00:36.285Z,99.90
2018-05-04T05:03:03.721Z,99.90
2018-05-04T05:05:31.159Z,99.90
2018-05-04T05:07:59.364Z,99.90
2018-05-04T05:10:26.808Z,99.90
2018-05-04T05:12:54.239Z,99.90
2018-05-04T05:15:22.453Z,99.90
2018-05-04T05:17:49.896Z,99.90
2018-05-04T05:20:17.354Z,99.90
2018-05-04T05:22:44.784Z,99.90
2018-05-04T05:25:12.993Z,99.90
2018-05-04T05:27:40.445Z,99.90
2018-05-04T05:30:07.879Z,99.90
2018-05-04T05:32:35.324Z,99.90
2018-05-04T05:35:03.524Z,99.90
2018-05-04T05:37:30.982Z,99.90
2018-05-04T05:39:58.442Z,99.90
2018-05-04T05:42:25.943Z,99.90
2018-05-04T05:44:54.083Z,99.90
2018-05-04T05:47:21.524Z,99.90
2018-05-04T05:49:48.964Z,99.90
2018-05-04T05:52:16.411Z,99.90
2018-05-04T05:54:44.689Z,99.90
2018-05-04T05:57:12.128Z,99.90
2018-05-04T05:59:39.561Z,99.90
2018-05-04T06:02:07.017Z,99.90
2018-05-04T06:04:34.450Z,99.90
2018-05-04T06:07:01.891Z,99.90
2018-05-04T06:09:29.316Z,99.90
2018-05-04T06:11:57.520Z,99.90
2018-05-04T06:14:24.958Z,99.90
2018-05-04T06:16:53.161Z,99.90
2018-05-04T06:19:20.613Z,99.90
2018-05-04T06:21:48.057Z,99.90
2018-05-04T06:24:15.487Z,99.90
2018-05-04T06:26:43.704Z,99.90
2018-05-04T06:29:11.164Z,99.90
2018-05-04T06:31:38.613Z,99.90
2018-05-04T06:34:06.040Z,99.90
2018-05-04T06:36:34.245Z,99.90
2018-05-04T06:39:01.684Z,99.90
2018-05-04T06:41:29.120Z,99.90
2018-05-04T06:43:57.349Z,99.90
2018-05-04T06:46:24.765Z,99.90
2018-05-04T06:48:52.199Z,99.90
2018-05-04T06:51:20.404Z,99.90
2018-05-04T06:53:47.841Z,99.90
2018-05-04T06:56:16.053Z,99.90
2018-05-04T06:58:43.490Z,99.90
2018-05-04T07:01:10.921Z,99.90
2018-05-04T07:03:39.234Z,99.90
2018-05-04T07:06:06.648Z,99.90
2018-05-04T07:08:34.854Z,99.90
2018-05-04T07:11:02.289Z,99.90
2018-05-04T07:13:30.496Z,99.90
2018-05-04T07:15:57.931Z,99.90
2018-05-04T07:18:25.368Z,99.90
2018-05-04T07:20:53.568Z,99.90
2018-05-04T07:23:21.004Z,99.90
2018-05-04T07:25:49.200Z,99.90
2018-05-04T07:28:16.639Z,99.90
2018-05-04T07:30:44.069Z,99.90
2018-05-04T07:33:11.504Z,99.90
2018-05-04T07:35:39.710Z,99.90
2018-05-04T07:38:07.921Z,99.90
2018-05-04T07:40:35.356Z,99.90
2018-05-04T07:43:02.799Z,99.90
2018-05-04T07:45:30.233Z,99.90
2018-05-04T07:47:57.667Z,99.90
2018-05-04T07:50:25.112Z,99.90
2018-05-04T07:52:52.540Z,99.90
2018-05-04T07:55:20.042Z,99.90
2018-05-04T07:57:48.184Z,99.90
2018-05-04T08:00:15.630Z,99.90
2018-05-04T08:02:43.064Z,99.90
2018-05-04T08:05:11.269Z,99.90
2018-05-04T08:07:38.701Z,99.90
2018-05-04T08:10:06.905Z,99.90
2018-05-04T08:12:34.336Z,99.90
2018-05-04T08:15:01.778Z,99.90
2018-05-04T08:17:29.977Z,99.90
2018-05-04T08:19:57.488Z,99.90
2018-05-04T08:22:25.632Z,99.90
2018-05-04T08:24:53.064Z,99.90
2018-05-04T08:27:20.543Z,99.90
2018-05-04T08:29:48.705Z,99.90
2018-05-04T08:32:16.140Z,99.90
2018-05-04T08:34:43.580Z,99.90
2018-05-04T08:37:11.781Z,99.90
2018-05-04T08:39:39.224Z,99.90
2018-05-04T08:42:06.655Z,99.90
2018-05-04T08:44:34.108Z,99.90
2018-05-04T08:47:01.544Z,99.90
2018-05-04T08:49:28.966Z,99.90
2018-05-04T08:51:56.404Z,99.90
2018-05-04T08:54:23.846Z,99.90
2018-05-04T08:56:51.276Z,99.90
2018-05-04T08:59:18.708Z,99.90
2018-05-04T09:01:46.153Z,99.90
2018-05-04T09:04:13.603Z,99.90
2018-05-04T09:06:41.041Z,99.90
2018-05-04T09:09:09.237Z,99.90
2018-05-04T09:11:36.681Z,99.90
2018-05-04T09:14:04.116Z,99.90
2018-05-04T09:16:32.316Z,99.90
2018-05-04T09:18:59.744Z,99.90
2018-05-04T09:21:27.954Z,99.90
2018-05-04T09:23:55.377Z,99.90
2018-05-04T09:26:23.581Z,99.90
2018-05-04T09:28:51.640Z,99.90
2018-05-04T09:31:19.088Z,99.90
2018-05-04T09:33:46.520Z,99.90
2018-05-04T09:36:14.091Z,99.90
2018-05-04T09:38:42.297Z,99.90
2018-05-04T09:41:09.748Z,99.90
2018-05-04T09:43:37.200Z,99.90
2018-05-04T09:46:05.388Z,99.90
2018-05-04T09:48:32.828Z,99.90
2018-05-04T09:51:00.268Z,99.90
2018-05-04T09:53:28.481Z,99.90
2018-05-04T09:55:56.025Z,99.90
2018-05-04T09:58:23.364Z,99.90
2018-05-04T10:00:50.804Z,99.90
2018-05-04T10:03:19.020Z,99.90
2018-05-04T10:05:46.457Z,99.90
2018-05-04T10:08:13.905Z,99.90
2018-05-04T10:10:41.344Z,99.90
2018-05-04T10:13:09.562Z,99.90
2018-05-04T10:15:37.014Z,99.90
2018-05-04T10:18:04.505Z,99.90
2018-05-04T10:20:31.964Z,99.90
2018-05-04T10:22:59.414Z,99.90
2018-05-04T10:25:26.848Z,99.90
2018-05-04T10:27:54.288Z,99.90
2018-05-04T10:30:21.721Z,99.90
2018-05-04T10:32:49.932Z,99.90
2018-05-04T10:35:17.364Z,99.90
2018-05-04T10:37:44.808Z,99.90
2018-05-04T10:40:13.027Z,99.90
2018-05-04T10:42:40.472Z,99.90
2018-05-04T10:45:07.912Z,99.90
2018-05-04T10:47:36.109Z,96.50
2018-05-04T10:50:03.536Z,96.40
2018-05-04T10:52:30.989Z,96.30
2018-05-04T10:54:58.429Z,93.30
2018-05-04T10:57:26.645Z,91.70
2018-05-04T10:59:54.081Z,91.60
2018-05-04T11:02:21.522Z,93.10
2018-05-04T11:04:49.726Z,93.40
2018-05-04T11:07:17.165Z,93.40
2018-05-04T11:09:44.608Z,94.00
2018-05-04T11:12:12.797Z,95.70
2018-05-04T11:14:40.244Z,95.70
2018-05-04T11:17:07.685Z,94.20
2018-05-04T11:19:35.122Z,93.20
2018-05-04T11:22:02.548Z,91.80
2018-05-04T11:24:30.764Z,90.70
2018-05-04T11:26:58.206Z,90.70
2018-05-04T11:29:25.655Z,90.90
2018-05-04T11:31:53.084Z,91.50
2018-05-04T11:34:20.540Z,91.10
2018-05-04T11:36:47.980Z,91.40
2018-05-04T11:39:15.425Z,93.00
2018-05-04T11:41:42.863Z,93.90
2018-05-04T11:44:11.070Z,94.50
2018-05-04T11:46:38.516Z,94.50
2018-05-04T11:49:05.972Z,96.00
2018-05-04T11:51:33.415Z,96.00
2018-05-04T11:54:01.629Z,96.80
2018-05-04T11:56:29.064Z,96.80
2018-05-04T11:58:56.511Z,96.70
2018-05-04T12:01:23.943Z,97.40
2018-05-04T12:03:52.152Z,97.40
2018-05-04T12:06:19.601Z,97.40
2018-05-04T12:08:47.041Z,97.60
2018-05-04T12:11:15.257Z,96.50
2018-05-04T12:13:42.701Z,96.50
2018-05-04T12:16:10.155Z,97.90
2018-05-04T12:18:37.586Z,97.20
2018-05-04T12:21:05.801Z,97.10
2018-05-04T12:23:33.253Z,97.10
2018-05-04T12:26:00.721Z,98.00
2018-05-04T12:28:28.169Z,98.40
2018-05-04T12:30:55.603Z,98.70
2018-05-04T12:33:23.067Z,97.50
2018-05-04T12:35:50.502Z,97.70
2018-05-04T12:38:18.721Z,98.20
2018-05-04T12:40:46.169Z,98.20
2018-05-04T12:43:13.612Z,97.80
2018-05-04T12:45:41.049Z,97.80
2018-05-04T12:48:08.492Z,97.50
2018-05-04T12:50:36.693Z,98.20
2018-05-04T12:53:04.140Z,98.10
2018-05-04T12:55:31.581Z,99.00
2018-05-04T12:57:59.800Z,98.10
2018-05-04T13:00:27.236Z,98.10
2018-05-04T13:02:54.676Z,97.10
2018-05-04T13:05:22.121Z,96.40
2018-05-04T13:07:50.329Z,97.40
2018-05-04T13:10:17.761Z,97.40
2018-05-04T13:12:45.204Z,97.70
2018-05-04T13:15:13.413Z,98.00
2018-05-04T13:17:40.864Z,98.40
2018-05-04T13:20:08.304Z,97.50
2018-05-04T13:22:35.759Z,97.50
2018-05-04T13:25:03.989Z,96.80
2018-05-04T13:27:31.508Z,96.80
2018-05-04T13:29:58.873Z,97.40
2018-05-04T13:32:26.312Z,96.90
2018-05-04T13:34:53.757Z,96.90
2018-05-04T13:37:21.968Z,96.60
2018-05-04T13:39:49.409Z,96.60
2018-05-04T13:42:16.861Z,96.50
2018-05-04T13:44:44.422Z,97.30
2018-05-04T13:47:12.507Z,97.60
2018-05-04T13:49:39.961Z,97.50
2018-05-04T13:52:07.397Z,96.30
2018-05-04T13:54:34.845Z,97.00
2018-05-04T13:57:03.049Z,95.90
2018-05-04T13:59:30.505Z,95.90
2018-05-04T14:01:57.944Z,96.20
2018-05-04T14:04:25.390Z,96.20
2018-05-04T14:06:52.842Z,96.20
2018-05-04T14:09:21.049Z,97.20
2018-05-04T14:11:48.500Z,97.20
2018-05-04T14:14:15.949Z,97.20
2018-05-04T14:16:43.385Z,97.30
2018-05-04T14:19:11.604Z,96.60
2018-05-04T14:21:39.032Z,96.60
2018-05-04T14:24:06.476Z,97.20
2018-05-04T14:26:33.917Z,97.40
2018-05-04T14:29:02.141Z,98.20
2018-05-04T14:31:30.353Z,98.00
2018-05-04T14:33:57.801Z,98.00
2018-05-04T14:36:25.245Z,98.20
2018-05-04T14:38:52.688Z,98.30
2018-05-04T14:41:20.129Z,98.10
2018-05-04T14:43:47.577Z,98.20
2018-05-04T14:46:15.026Z,97.80
2018-05-04T14:48:42.482Z,98.00
2018-05-04T14:51:09.908Z,98.10
2018-05-04T14:53:38.108Z,97.80
2018-05-04T14:56:05.552Z,97.80
2018-05-04T14:58:33.775Z,97.50
2018-05-04T15:01:01.197Z,97.40
2018-05-04T15:03:28.628Z,97.00
2018-05-04T15:05:56.834Z,95.60
2018-05-04T15:08:24.266Z,95.60
2018-05-04T15:10:52.476Z,93.30
2018-05-04T15:13:19.916Z,93.30
2018-05-04T15:15:47.365Z,92.50
2018-05-04T15:18:14.800Z,90.50
2018-05-04T15:20:43.000Z,81.00
2018-05-04T15:23:10.436Z,80.80
2018-05-04T15:25:38.668Z,69.70
2018-05-04T15:28:06.101Z,69.50
2018-05-04T15:30:33.542Z,67.10
2018-05-04T15:33:00.973Z,65.30
2018-05-04T15:35:29.218Z,61.90
2018-05-04T15:37:56.669Z,61.80
2018-05-04T15:40:24.182Z,61.40
2018-05-04T15:42:51.532Z,62.70
2018-05-04T15:45:18.985Z,62.70
2018-05-04T15:47:46.416Z,63.50
2018-05-04T15:50:19.432Z,64.90
2018-05-04T15:52:46.865Z,67.10
2018-05-04T15:55:15.077Z,72.00
2018-05-04T15:57:42.512Z,71.60
2018-05-04T16:00:10.734Z,73.60
2018-05-04T16:02:38.932Z,74.70
2018-05-04T16:05:06.364Z,74.70
2018-05-04T16:07:33.800Z,78.30
2018-05-04T16:10:01.232Z,78.70
2018-05-04T16:12:28.677Z,80.30
2018-05-04T16:14:56.885Z,82.50
2018-05-04T16:17:24.333Z,82.40
2018-05-04T16:19:51.764Z,82.50
2018-05-04T16:22:19.977Z,85.00
2018-05-04T16:24:47.421Z,85.00
2018-05-04T16:27:14.848Z,85.10
2018-05-04T16:29:43.050Z,86.50
2018-05-04T16:32:10.493Z,86.30
2018-05-04T16:34:37.920Z,83.00
2018-05-04T16:37:05.365Z,83.50
2018-05-04T16:39:32.805Z,82.00
2018-05-04T16:42:00.257Z,80.70
2018-05-04T16:44:27.689Z,82.00
2018-05-04T16:47:00.708Z,79.80
2018-05-04T16:49:28.148Z,80.00
2018-05-04T16:51:55.584Z,80.10
2018-05-04T16:54:23.029Z,80.30
2018-05-04T16:56:50.477Z,78.90
2018-05-04T16:59:17.918Z,78.90
2018-05-04T17:01:46.125Z,78.90
2018-05-04T17:04:13.581Z,79.70
2018-05-04T17:06:41.054Z,77.70
2018-05-04T17:09:08.528Z,78.30
2018-05-04T17:11:35.933Z,76.30
2018-05-04T17:14:03.389Z,76.90
2018-05-04T17:16:31.657Z,75.90
2018-05-04T17:18:59.816Z,76.30
2018-05-04T17:21:27.260Z,76.30
2018-05-04T17:23:54.701Z,77.00
2018-05-04T17:26:22.152Z,76.80
2018-05-04T17:28:49.590Z,77.10
2018-05-04T17:31:17.049Z,77.00
2018-05-04T17:33:44.488Z,76.10
2018-05-04T17:36:11.926Z,76.60
2018-05-04T17:38:39.376Z,77.10
2018-05-04T17:41:06.814Z,75.40
2018-05-04T17:43:34.257Z,77.00
2018-05-04T17:46:01.685Z,77.00
2018-05-04T17:48:29.133Z,77.10
2018-05-04T17:50:56.567Z,77.20
2018-05-04T17:53:25.694Z,77.80
2018-05-04T17:55:53.124Z,77.80
2018-05-04T17:58:20.571Z,77.10
2018-05-04T18:00:48.760Z,78.80
2018-05-04T18:03:16.229Z,78.70
2018-05-04T18:05:43.648Z,76.90
2018-05-04T18:08:12.037Z,78.50
2018-05-04T18:10:39.514Z,78.40
2018-05-04T18:13:07.704Z,77.60
2018-05-04T18:15:35.150Z,77.40
2018-05-04T18:18:02.598Z,78.40
2018-05-04T18:20:30.044Z,78.00
2018-05-04T18:22:58.249Z,78.70
2018-05-04T18:25:25.688Z,78.70
2018-05-04T18:27:53.134Z,78.30
2018-05-04T18:30:20.556Z,78.20
2018-05-04T18:32:48.002Z,78.10
2018-05-04T18:35:15.441Z,78.90
2018-05-04T18:37:42.880Z,77.60
2018-05-04T18:40:10.387Z,77.80
2018-05-04T18:42:37.786Z,77.30
2018-05-04T18:45:05.207Z,78.00
2018-05-04T18:47:32.656Z,79.20
2018-05-04T18:50:00.109Z,79.30
2018-05-04T18:52:27.541Z,78.50
2018-05-04T18:54:54.985Z,78.30
2018-05-04T18:57:23.189Z,79.80
2018-05-04T18:59:50.657Z,79.80
2018-05-04T19:02:23.740Z,79.50
2018-05-04T19:04:51.193Z,79.80
2018-05-04T19:07:18.633Z,80.00
2018-05-04T19:09:46.089Z,79.40
2018-05-04T19:12:13.526Z,79.80
2018-05-04T19:14:41.008Z,79.70
2018-05-04T19:17:08.416Z,81.10
2018-05-04T19:19:35.876Z,79.70
2018-05-04T19:22:03.311Z,79.50
2018-05-04T19:24:31.525Z,80.20
2018-05-04T19:26:58.971Z,80.10
2018-05-04T19:29:26.411Z,80.20
2018-05-04T19:31:53.842Z,80.00
2018-05-04T19:34:22.057Z,81.40
2018-05-04T19:36:49.495Z,80.70
2018-05-04T19:39:16.937Z,79.70
2018-05-04T19:41:44.372Z,80.30
2018-05-04T19:44:11.817Z,79.80
2018-05-04T19:46:39.252Z,80.20
2018-05-04T19:49:06.696Z,80.20
2018-05-04T19:51:34.139Z,80.50
2018-05-04T19:54:01.576Z,81.00
2018-05-04T19:56:29.791Z,81.20
2018-05-04T19:58:57.280Z,81.20
2018-05-04T20:01:24.666Z,80.00
2018-05-04T20:03:52.868Z,80.80
2018-05-04T20:06:20.315Z,80.80
2018-05-04T20:08:47.756Z,80.90
2018-05-04T20:11:15.209Z,80.80
2018-05-04T20:13:42.653Z,80.80
2018-05-04T20:16:10.862Z,81.10
2018-05-04T20:18:39.061Z,81.10
2018-05-04T20:21:06.627Z,81.10
2018-05-04T20:23:34.063Z,79.70
2018-05-04T20:26:01.509Z,79.90
2018-05-04T20:28:28.954Z,80.50
2018-05-04T20:30:56.398Z,81.00
2018-05-04T20:33:23.838Z,81.10
2018-05-04T20:35:52.037Z,81.60
2018-05-04T20:38:19.480Z,81.40
2018-05-04T20:40:47.700Z,82.10
2018-05-04T20:43:15.138Z,81.90
2018-05-04T20:45:42.588Z,83.00
2018-05-04T20:48:10.025Z,82.80
2018-05-04T20:50:38.245Z,81.70
2018-05-04T20:53:05.682Z,81.60
2018-05-04T20:55:33.117Z,81.80
2018-05-04T20:58:00.561Z,81.50
2018-05-04T21:00:27.997Z,82.20
2018-05-04T21:02:55.449Z,82.70
2018-05-04T21:05:22.889Z,82.40
2018-05-04T21:07:50.341Z,82.50
2018-05-04T21:10:17.861Z,82.90
2018-05-04T21:12:45.305Z,83.00
2018-05-04T21:15:13.511Z,83.70
2018-05-04T21:17:40.974Z,83.60
2018-05-04T21:20:08.409Z,83.00
2018-05-04T21:22:35.857Z,83.10
2018-05-04T21:25:03.298Z,83.90
2018-05-04T21:27:31.512Z,84.50
2018-05-04T21:29:58.957Z,84.40
2018-05-04T21:32:26.409Z,84.80
2018-05-04T21:34:53.835Z,84.50
2018-05-04T21:37:22.100Z,85.10
2018-05-04T21:39:49.480Z,85.10
2018-05-04T21:42:16.924Z,85.10
2018-05-04T21:44:45.155Z,85.20
2018-05-04T21:47:12.583Z,85.10
2018-05-04T21:49:40.038Z,85.00
2018-05-04T21:52:07.477Z,84.70
2018-05-04T21:54:34.926Z,85.10
2018-05-04T21:57:02.374Z,85.30
2018-05-04T21:59:30.573Z,85.10
2018-05-04T22:01:58.040Z,85.10
2018-05-04T22:04:25.469Z,85.40
2018-05-04T22:06:53.705Z,85.60
2018-05-04T22:09:21.152Z,85.60
2018-05-04T22:11:48.609Z,85.70
2018-05-04T22:14:16.072Z,85.70
2018-05-04T22:16:43.488Z,85.90
2018-05-04T22:19:10.941Z,85.90
2018-05-04T22:21:38.400Z,86.20
2018-05-04T22:24:05.836Z,86.00
2018-05-04T22:26:34.092Z,87.00
2018-05-04T22:29:01.494Z,87.00
2018-05-04T22:31:28.924Z,87.20
2018-05-04T22:33:56.365Z,87.50
2018-05-04T22:36:24.573Z,87.10
2018-05-04T22:38:52.017Z,87.00
2018-05-04T22:41:19.451Z,87.10
2018-05-04T22:43:46.894Z,88.10
2018-05-04T22:46:14.953Z,88.30
2018-05-04T22:48:42.413Z,89.00
2018-05-04T22:51:09.853Z,88.90
2018-05-04T22:53:37.366Z,88.70
2018-05-04T22:56:04.728Z,89.00
2018-05-04T22:58:32.173Z,89.40
2018-05-04T23:01:00.382Z,89.00
2018-05-04T23:03:27.825Z,89.00
2018-05-04T23:05:55.253Z,89.40
2018-05-04T23:08:23.474Z,89.30
2018-05-04T23:10:50.909Z,89.30
2018-05-04T23:13:18.346Z,89.90
2018-05-04T23:15:46.549Z,90.10
2018-05-04T23:18:13.993Z,90.00
2018-05-04T23:20:41.441Z,90.00
2018-05-04T23:23:08.877Z,90.40
2018-05-04T23:25:37.085Z,90.20
2018-05-04T23:28:04.513Z,90.20
2018-05-04T23:30:32.716Z,90.30
2018-05-04T23:33:00.156Z,90.30
2018-05-04T23:35:27.601Z,90.40
2018-05-04T23:37:55.037Z,90.60
2018-05-04T23:40:22.485Z,90.70
2018-05-04T23:42:49.921Z,90.60
2018-05-04T23:45:17.367Z,90.60
2018-05-04T23:47:44.796Z,90.50
2018-05-04T23:50:12.228Z,91.10
2018-05-04T23:52:40.428Z,90.80
2018-05-04T23:55:07.871Z,90.70
2018-05-04T23:57:36.064Z,91.00
